createdAt,value
2018-05-21T00:00:23.671Z,16.65
2018-05-21T00:02:52.049Z,16.64
2018-05-21T00:05:20.378Z,16.62
2018-05-21T00:07:49.525Z,16.58
2018-05-21T00:10:18.460Z,16.55
2018-05-21T00:12:47.585Z,16.49
2018-05-21T00:15:16.891Z,16.50
2018-05-21T00:17:45.233Z,16.45
2018-05-21T00:20:14.350Z,16.40
2018-05-21T00:22:42.705Z,16.42
2018-05-21T00:25:11.844Z,16.43
2018-05-21T00:27:41.004Z,16.40
2018-05-21T00:30:10.156Z,16.40
2018-05-21T00:32:38.544Z,16.37
2018-05-21T00:35:07.653Z,16.38
2018-05-21T00:37:36.013Z,16.37
2018-05-21T00:40:04.342Z,16.36
2018-05-21T00:42:33.448Z,16.30
2018-05-21T00:45:01.861Z,16.25
2018-05-21T00:47:30.123Z,16.20
2018-05-21T00:49:59.408Z,16.16
2018-05-21T00:52:28.336Z,16.16
2018-05-21T00:55:14.532Z,16.14
2018-05-21T00:57:42.872Z,16.10
2018-05-21T01:00:11.249Z,16.13
2018-05-21T01:02:39.596Z,16.09
2018-05-21T01:05:07.944Z,16.08
2018-05-21T01:07:36.358Z,16.07
2018-05-21T01:10:05.500Z,16.08
2018-05-21T01:12:33.830Z,16.08
2018-05-21T01:15:02.151Z,16.07
2018-05-21T01:17:30.496Z,16.07
2018-05-21T01:19:59.758Z,16.07
2018-05-21T01:22:28.242Z,16.11
2018-05-21T01:24:56.563Z,16.11
2018-05-21T01:27:25.706Z,16.09
2018-05-21T01:29:54.522Z,16.05
2018-05-21T01:32:22.871Z,16.01
2018-05-21T01:34:51.971Z,15.97
2018-05-21T01:37:20.378Z,15.89
2018-05-21T01:39:48.737Z,15.88
2018-05-21T01:42:17.074Z,15.90
2018-05-21T01:44:46.119Z,15.81
2018-05-21T01:47:14.468Z,15.73
2018-05-21T01:49:42.814Z,15.70
2018-05-21T01:52:11.200Z,15.68
2018-05-21T01:54:39.553Z,15.65
2018-05-21T01:57:09.300Z,15.70
2018-05-21T01:59:37.710Z,15.68
2018-05-21T02:02:06.030Z,15.67
2018-05-21T02:04:34.370Z,15.66
2018-05-21T02:07:02.727Z,15.69
2018-05-21T02:09:31.061Z,15.68
2018-05-21T02:12:00.173Z,15.69
2018-05-21T02:14:28.490Z,15.69
2018-05-21T02:16:56.821Z,15.69
2018-05-21T02:19:25.206Z,15.70
2018-05-21T02:21:53.773Z,15.71
2018-05-21T02:24:22.884Z,15.65
2018-05-21T02:26:52.174Z,15.61
2018-05-21T02:29:20.496Z,15.60
2018-05-21T02:31:48.883Z,15.50
2018-05-21T02:34:17.271Z,15.51
2018-05-21T02:36:45.588Z,15.46
2018-05-21T02:39:13.946Z,15.43
2018-05-21T02:41:42.348Z,15.44
2018-05-21T02:44:11.468Z,15.30
2018-05-21T02:46:41.727Z,15.27
2018-05-21T02:49:11.081Z,15.21
2018-05-21T02:51:40.110Z,15.18
2018-05-21T02:54:08.517Z,15.17
2018-05-21T02:56:36.860Z,15.16
2018-05-21T02:59:06.090Z,15.17
2018-05-21T03:01:35.157Z,15.19
2018-05-21T03:04:03.539Z,15.16
2018-05-21T03:06:31.900Z,15.17
2018-05-21T03:09:00.292Z,15.17
2018-05-21T03:11:29.360Z,15.08
2018-05-21T03:13:57.707Z,15.09
2018-05-21T03:16:26.866Z,15.07
2018-05-21T03:18:55.322Z,15.08
2018-05-21T03:21:23.664Z,15.12
2018-05-21T03:23:54.361Z,15.13
2018-05-21T03:26:22.829Z,15.19
2018-05-21T03:28:51.398Z,15.20
2018-05-21T03:31:19.765Z,15.21
2018-05-21T03:33:48.959Z,15.22
2018-05-21T03:36:18.892Z,15.17
2018-05-21T03:38:47.221Z,15.17
2018-05-21T03:41:16.540Z,15.16
2018-05-21T03:43:45.678Z,15.14
2018-05-21T03:46:14.198Z,15.12
2018-05-21T03:48:42.547Z,15.10
2018-05-21T03:51:10.893Z,15.12
2018-05-21T03:53:39.241Z,15.13
2018-05-21T03:56:09.193Z,15.14
2018-05-21T03:58:56.083Z,15.11
2018-05-21T04:01:42.809Z,15.07
2018-05-21T04:04:11.524Z,15.04
2018-05-21T04:06:40.285Z,15.02
2018-05-21T04:09:08.667Z,15.00
2018-05-21T04:11:37.010Z,14.99
2018-05-21T04:14:06.136Z,15.00
2018-05-21T04:16:34.545Z,14.93
2018-05-21T04:19:02.944Z,14.90
2018-05-21T04:21:32.021Z,14.87
2018-05-21T04:24:00.395Z,14.93
2018-05-21T04:26:28.802Z,14.88
2018-05-21T04:28:57.146Z,14.92
2018-05-21T04:31:25.528Z,14.93
2018-05-21T04:33:53.870Z,14.96
2018-05-21T04:36:22.624Z,15.04
2018-05-21T04:38:50.904Z,15.06
2018-05-21T04:41:19.697Z,15.05
2018-05-21T04:43:50.351Z,15.06
2018-05-21T04:46:19.521Z,15.07
2018-05-21T04:48:48.477Z,15.02
2018-05-21T04:51:17.610Z,14.98
2018-05-21T04:53:46.744Z,14.96
2018-05-21T04:56:16.502Z,14.94
2018-05-21T04:58:46.672Z,14.93
2018-05-21T05:01:16.589Z,14.96
2018-05-21T05:03:44.932Z,15.01
2018-05-21T05:06:13.292Z,15.11
2018-05-21T05:08:42.462Z,15.15
2018-05-21T05:11:10.849Z,15.17
2018-05-21T05:13:40.121Z,15.19
2018-05-21T05:16:09.368Z,15.14
2018-05-21T05:18:37.692Z,15.17
2018-05-21T05:21:07.107Z,15.19
2018-05-21T05:23:36.979Z,15.21
2018-05-21T05:26:05.354Z,15.28
2018-05-21T05:28:34.320Z,15.35
2018-05-21T05:31:02.785Z,15.41
2018-05-21T05:33:31.117Z,15.37
2018-05-21T05:36:00.817Z,15.41
2018-05-21T05:38:29.885Z,15.48
2018-05-21T05:40:59.082Z,15.56
2018-05-21T05:43:27.460Z,15.65
2018-05-21T05:45:56.761Z,15.77
2018-05-21T05:48:25.249Z,15.81
2018-05-21T05:50:53.629Z,15.82
2018-05-21T05:53:22.607Z,15.87
2018-05-21T05:55:50.953Z,15.94
2018-05-21T05:58:21.870Z,15.96
2018-05-21T06:00:51.123Z,16.02
2018-05-21T06:03:19.580Z,16.13
2018-05-21T06:05:47.950Z,16.19
2018-05-21T06:08:17.975Z,16.17
2018-05-21T06:10:46.404Z,16.20
2018-05-21T06:13:14.771Z,16.27
2018-05-21T06:15:43.807Z,16.42
2018-05-21T06:18:13.161Z,16.51
2018-05-21T06:20:41.549Z,16.58
2018-05-21T06:23:09.884Z,16.60
2018-05-21T06:25:39.896Z,16.69
2018-05-21T06:28:09.041Z,16.79
2018-05-21T06:30:37.439Z,16.97
2018-05-21T06:33:06.192Z,16.98
2018-05-21T06:35:35.405Z,16.93
2018-05-21T06:38:04.529Z,17.04
2018-05-21T06:40:33.760Z,17.15
2018-05-21T06:43:02.210Z,17.18
2018-05-21T06:45:30.651Z,17.20
2018-05-21T06:47:58.987Z,17.32
2018-05-21T06:50:28.129Z,17.43
2018-05-21T06:52:56.492Z,17.50
2018-05-21T06:55:26.319Z,17.60
2018-05-21T06:57:55.879Z,17.70
2018-05-21T07:00:25.554Z,17.75
2018-05-21T07:02:54.280Z,17.85
2018-05-21T07:05:23.434Z,17.95
2018-05-21T07:07:52.656Z,17.95
2018-05-21T07:10:22.356Z,17.97
2018-05-21T07:12:50.838Z,18.09
2018-05-21T07:15:19.191Z,18.17
2018-05-21T07:17:48.929Z,18.27
2018-05-21T07:20:18.044Z,18.37
2018-05-21T07:22:47.756Z,18.41
2018-05-21T07:25:16.879Z,18.48
2018-05-21T07:27:46.057Z,18.50
2018-05-21T07:30:16.524Z,18.56
2018-05-21T07:32:44.931Z,18.65
2018-05-21T07:35:13.484Z,18.70
2018-05-21T07:37:42.125Z,18.85
2018-05-21T07:40:11.350Z,18.90
2018-05-21T07:42:40.518Z,18.92
2018-05-21T07:45:09.693Z,18.89
2018-05-21T07:47:38.820Z,18.91
2018-05-21T07:50:08.205Z,18.96
2018-05-21T07:52:37.521Z,19.03
2018-05-21T07:55:06.685Z,19.11
2018-05-21T07:57:36.010Z,19.16
2018-05-21T08:00:06.054Z,19.21
2018-05-21T08:02:34.403Z,19.30
2018-05-21T08:05:04.296Z,19.38
2018-05-21T08:07:33.260Z,19.38
2018-05-21T08:10:02.256Z,19.43
2018-05-21T08:12:31.569Z,19.40
2018-05-21T08:15:00.648Z,19.46
2018-05-21T08:17:29.856Z,19.55
2018-05-21T08:19:59.908Z,19.62
2018-05-21T08:22:28.261Z,19.74
2018-05-21T08:24:56.616Z,19.79
2018-05-21T08:27:25.535Z,19.85
2018-05-21T08:29:54.387Z,19.90
2018-05-21T08:32:24.100Z,19.95
2018-05-21T08:34:53.420Z,19.95
2018-05-21T08:37:21.865Z,20.05
2018-05-21T08:39:50.719Z,20.12
2018-05-21T08:42:19.101Z,20.18
2018-05-21T08:44:49.300Z,20.24
2018-05-21T08:47:18.440Z,20.32
2018-05-21T08:49:47.637Z,20.39
2018-05-21T08:52:16.804Z,20.43
2018-05-21T08:54:45.295Z,20.50
2018-05-21T08:57:14.463Z,20.56
2018-05-21T08:59:43.811Z,20.62
2018-05-21T09:02:12.952Z,20.65
2018-05-21T09:04:41.535Z,20.66
2018-05-21T09:07:11.549Z,20.66
2018-05-21T09:09:39.913Z,20.73
2018-05-21T09:12:09.124Z,20.82
2018-05-21T09:14:39.444Z,20.87
2018-05-21T09:17:08.743Z,20.96
2018-05-21T09:19:37.668Z,20.98
2018-05-21T09:22:06.926Z,21.04
2018-05-21T09:24:35.325Z,21.08
2018-05-21T09:27:04.468Z,21.11
2018-05-21T09:29:34.577Z,21.20
2018-05-21T09:32:02.920Z,21.28
2018-05-21T09:34:31.265Z,21.37
2018-05-21T09:37:00.770Z,21.44
2018-05-21T09:39:29.910Z,21.55
2018-05-21T09:41:58.271Z,21.67
2018-05-21T09:44:26.784Z,21.73
2018-05-21T09:46:55.184Z,21.78
2018-05-21T09:49:23.752Z,21.84
2018-05-21T09:51:52.565Z,21.94
2018-05-21T09:54:21.706Z,21.99
2018-05-21T09:56:50.247Z,22.04
2018-05-21T09:59:19.439Z,22.03
2018-05-21T10:01:48.027Z,22.05
2018-05-21T10:04:16.374Z,22.12
2018-05-21T10:06:44.772Z,22.14
2018-05-21T10:09:14.644Z,22.22
2018-05-21T10:11:43.875Z,22.27
2018-05-21T10:14:13.063Z,22.35
2018-05-21T10:16:41.527Z,22.44
2018-05-21T10:19:09.934Z,22.49
2018-05-21T10:21:38.285Z,22.49
2018-05-21T10:24:06.769Z,22.61
2018-05-21T10:26:36.775Z,22.62
2018-05-21T10:29:06.521Z,22.74
2018-05-21T10:31:35.657Z,22.85
2018-05-21T10:34:04.015Z,22.90
2018-05-21T10:36:33.204Z,22.96
2018-05-21T10:39:01.651Z,22.96
2018-05-21T10:41:29.994Z,22.97
2018-05-21T10:43:59.551Z,22.97
2018-05-21T10:46:28.912Z,23.03
2018-05-21T10:48:57.998Z,23.10
2018-05-21T10:51:26.459Z,23.17
2018-05-21T10:53:54.808Z,23.14
2018-05-21T10:56:23.233Z,23.13
2018-05-21T10:58:51.878Z,23.15
2018-05-21T11:01:20.258Z,23.20
2018-05-21T11:03:48.749Z,23.24
2018-05-21T11:06:17.160Z,23.37
2018-05-21T11:08:45.537Z,23.33
2018-05-21T11:11:16.086Z,23.51
2018-05-21T11:13:46.143Z,23.60
2018-05-21T11:16:14.520Z,23.74
2018-05-21T11:18:43.731Z,23.86
2018-05-21T11:21:12.142Z,23.97
2018-05-21T11:23:40.517Z,24.07
2018-05-21T11:26:13.121Z,24.14
2018-05-21T11:28:42.391Z,24.16
2018-05-21T11:31:10.729Z,24.16
2018-05-21T11:33:40.630Z,24.22
2018-05-21T11:36:08.968Z,24.17
2018-05-21T11:38:38.213Z,24.23
2018-05-21T11:41:07.185Z,24.29
2018-05-21T11:43:35.943Z,24.38
2018-05-21T11:46:04.325Z,24.46
2018-05-21T11:48:33.360Z,24.53
2018-05-21T11:51:02.703Z,24.49
2018-05-21T11:53:32.116Z,24.64
2018-05-21T11:56:00.609Z,24.64
2018-05-21T11:58:29.793Z,24.69
2018-05-21T12:00:59.246Z,24.83
2018-05-21T12:03:28.552Z,24.81
2018-05-21T12:05:58.353Z,24.98
2018-05-21T12:08:26.968Z,25.01
2018-05-21T12:10:56.237Z,24.93
2018-05-21T12:13:25.094Z,24.91
2018-05-21T12:15:53.468Z,25.01
2018-05-21T12:18:22.562Z,25.10
2018-05-21T12:20:51.992Z,25.08
2018-05-21T12:23:21.626Z,25.05
2018-05-21T12:25:50.153Z,25.03
2018-05-21T12:28:19.407Z,25.05
2018-05-21T12:30:47.747Z,25.09
2018-05-21T12:33:16.138Z,25.13
2018-05-21T12:35:44.544Z,25.29
2018-05-21T12:38:13.025Z,25.40
2018-05-21T12:40:41.443Z,25.30
2018-05-21T12:43:10.619Z,25.48
2018-05-21T12:45:39.083Z,25.50
2018-05-21T12:48:07.449Z,25.51
2018-05-21T12:50:35.864Z,25.48
2018-05-21T12:53:04.219Z,25.65
2018-05-21T12:55:33.400Z,25.75
2018-05-21T12:58:01.795Z,25.74
2018-05-21T13:00:30.147Z,25.84
2018-05-21T13:02:58.487Z,25.93
2018-05-21T13:05:27.603Z,26.07
2018-05-21T13:07:55.963Z,26.08
2018-05-21T13:10:25.117Z,26.13
2018-05-21T13:12:53.461Z,26.26
2018-05-21T13:15:21.898Z,26.25
2018-05-21T13:17:51.357Z,26.30
2018-05-21T13:20:19.776Z,26.30
2018-05-21T13:22:48.851Z,26.26
2018-05-21T13:25:17.250Z,26.28
2018-05-21T13:27:45.599Z,26.39
2018-05-21T13:30:13.956Z,26.45
2018-05-21T13:32:42.351Z,26.45
2018-05-21T13:35:10.900Z,26.36
2018-05-21T13:37:40.463Z,26.53
2018-05-21T13:40:08.919Z,26.55
2018-05-21T13:42:37.259Z,26.59
2018-05-21T13:45:06.806Z,26.59
2018-05-21T13:47:35.277Z,26.69
2018-05-21T13:50:04.118Z,26.72
2018-05-21T13:52:32.787Z,26.79
2018-05-21T13:55:05.731Z,26.91
2018-05-21T13:57:34.762Z,27.06
2018-05-21T14:00:03.165Z,27.02
2018-05-21T14:02:32.385Z,27.11
2018-05-21T14:05:01.584Z,27.20
2018-05-21T14:07:30.739Z,27.32
2018-05-21T14:09:59.942Z,27.37
2018-05-21T14:12:28.621Z,27.44
2018-05-21T14:14:57.084Z,27.44
2018-05-21T14:17:25.574Z,27.46
2018-05-21T14:19:54.257Z,27.42
2018-05-21T14:22:22.698Z,27.41
2018-05-21T14:24:51.864Z,27.44
2018-05-21T14:27:20.200Z,27.37
2018-05-21T14:29:49.332Z,27.31
2018-05-21T14:32:17.674Z,27.46
2018-05-21T14:34:46.159Z,27.46
2018-05-21T14:37:14.487Z,27.62
2018-05-21T14:39:42.914Z,27.60
2018-05-21T14:42:12.863Z,27.72
2018-05-21T14:44:41.310Z,27.62
2018-05-21T14:47:09.705Z,27.67
2018-05-21T14:49:38.735Z,27.74
2018-05-21T14:52:07.834Z,27.85
2018-05-21T14:54:36.258Z,27.94
2018-05-21T14:57:04.642Z,27.83
2018-05-21T14:59:36.055Z,27.85
2018-05-21T15:02:05.648Z,27.81
2018-05-21T15:04:35.858Z,27.78
2018-05-21T15:07:05.555Z,27.78
2018-05-21T15:09:33.899Z,27.83
2018-05-21T15:12:02.337Z,27.87
2018-05-21T15:14:31.490Z,27.82
2018-05-21T15:16:59.975Z,27.86
2018-05-21T15:19:30.207Z,28.01
2018-05-21T15:21:59.611Z,28.18
2018-05-21T15:24:28.876Z,28.54
2018-05-21T15:26:57.262Z,28.74
2018-05-21T15:29:25.661Z,29.04
2018-05-21T15:31:54.171Z,29.02
2018-05-21T15:34:22.649Z,29.21
2018-05-21T15:36:51.817Z,29.24
2018-05-21T15:39:20.993Z,29.39
2018-05-21T15:41:49.571Z,29.16
2018-05-21T15:44:18.272Z,29.28
2018-05-21T15:46:47.574Z,29.36
2018-05-21T15:49:16.505Z,29.44
2018-05-21T15:51:45.356Z,29.31
2018-05-21T15:54:13.733Z,29.35
2018-05-21T15:56:43.022Z,29.51
2018-05-21T15:59:12.482Z,29.48
2018-05-21T16:01:40.952Z,29.60
2018-05-21T16:04:11.052Z,29.48
2018-05-21T16:06:40.583Z,29.24
2018-05-21T16:09:09.058Z,29.30
2018-05-21T16:11:38.152Z,29.08
2018-05-21T16:14:07.401Z,29.09
2018-05-21T16:16:35.960Z,29.03
2018-05-21T16:19:05.330Z,29.06
2018-05-21T16:21:33.714Z,28.90
2018-05-21T16:24:02.049Z,28.68
2018-05-21T16:26:30.627Z,28.40
2018-05-21T16:28:58.941Z,28.09
2018-05-21T16:31:27.409Z,27.69
2018-05-21T16:33:55.770Z,27.51
2018-05-21T16:36:24.120Z,27.37
2018-05-21T16:38:53.245Z,27.20
2018-05-21T16:41:21.664Z,27.00
2018-05-21T16:43:50.062Z,26.84
2018-05-21T16:46:18.396Z,26.62
2018-05-21T16:48:46.832Z,26.58
2018-05-21T16:51:16.143Z,26.47
2018-05-21T16:53:44.557Z,26.41
2018-05-21T16:56:12.958Z,26.32
2018-05-21T16:58:41.394Z,26.34
2018-05-21T17:01:10.592Z,26.25
2018-05-21T17:03:39.878Z,26.27
2018-05-21T17:06:09.126Z,26.29
2018-05-21T17:08:38.376Z,26.15
2018-05-21T17:11:08.848Z,26.04
2018-05-21T17:13:38.456Z,25.89
2018-05-21T17:16:08.062Z,25.81
2018-05-21T17:18:37.049Z,25.66
2018-05-21T17:21:06.543Z,25.55
2018-05-21T17:23:34.957Z,25.46
2018-05-21T17:26:03.323Z,25.37
2018-05-21T17:28:32.521Z,25.32
2018-05-21T17:31:01.707Z,25.26
2018-05-21T17:33:30.495Z,25.27
2018-05-21T17:35:58.926Z,25.23
2018-05-21T17:38:28.063Z,25.11
2018-05-21T17:40:56.875Z,25.00
2018-05-21T17:43:25.295Z,24.91
2018-05-21T17:45:54.411Z,24.82
2018-05-21T17:48:23.981Z,24.73
2018-05-21T17:50:53.953Z,24.65
2018-05-21T17:53:23.266Z,24.58
2018-05-21T17:55:51.627Z,24.56
2018-05-21T17:58:21.018Z,24.50
2018-05-21T18:00:50.243Z,24.44
2018-05-21T18:03:19.887Z,24.39
2018-05-21T18:05:49.408Z,24.29
2018-05-21T18:08:18.517Z,24.15
2018-05-21T18:10:49.689Z,24.09
2018-05-21T18:13:18.067Z,24.05
2018-05-21T18:15:46.439Z,24.04
2018-05-21T18:18:14.889Z,23.92
2018-05-21T18:20:44.091Z,23.84
2018-05-21T18:23:13.215Z,23.80
2018-05-21T18:25:41.579Z,23.67
2018-05-21T18:28:10.900Z,23.63
2018-05-21T18:30:40.036Z,23.62
2018-05-21T18:33:09.158Z,23.54
2018-05-21T18:35:38.353Z,23.46
2018-05-21T18:38:07.450Z,23.41
2018-05-21T18:40:36.623Z,23.37
2018-05-21T18:43:04.989Z,23.29
2018-05-21T18:45:33.440Z,23.22
2018-05-21T18:48:01.813Z,23.19
2018-05-21T18:50:30.278Z,23.14
2018-05-21T18:52:58.746Z,23.08
2018-05-21T18:55:27.869Z,22.98
2018-05-21T18:57:58.125Z,22.96
2018-05-21T19:00:26.472Z,22.92
2018-05-21T19:02:54.840Z,22.80
2018-05-21T19:05:25.591Z,22.76
2018-05-21T19:07:54.220Z,22.71
2018-05-21T19:10:23.149Z,22.67
2018-05-21T19:12:55.060Z,22.64
2018-05-21T19:15:23.468Z,22.54
2018-05-21T19:17:52.640Z,22.50
2018-05-21T19:20:21.030Z,22.42
2018-05-21T19:22:49.485Z,22.31
2018-05-21T19:25:18.017Z,22.21
2018-05-21T19:27:47.127Z,22.16
2018-05-21T19:30:15.535Z,22.12
2018-05-21T19:32:43.945Z,22.09
2018-05-21T19:35:13.170Z,22.05
2018-05-21T19:37:42.333Z,22.00
2018-05-21T19:40:10.702Z,21.95
2018-05-21T19:42:39.070Z,21.87
2018-05-21T19:45:07.745Z,21.81
2018-05-21T19:47:36.321Z,21.72
2018-05-21T19:50:04.747Z,21.61
2018-05-21T19:52:33.324Z,21.56
2018-05-21T19:55:02.590Z,21.54
2018-05-21T19:57:30.961Z,21.50
2018-05-21T19:59:59.480Z,21.47
2018-05-21T20:02:28.613Z,21.42
2018-05-21T20:04:58.368Z,21.37
2018-05-21T20:07:27.087Z,21.30
2018-05-21T20:09:57.467Z,21.31
2018-05-21T20:12:25.855Z,21.25
2018-05-21T20:14:54.914Z,21.29
2018-05-21T20:17:26.237Z,21.24
2018-05-21T20:19:54.610Z,21.13
2018-05-21T20:22:24.064Z,21.10
2018-05-21T20:24:53.568Z,21.04
2018-05-21T20:27:22.805Z,20.97
2018-05-21T20:29:52.740Z,20.92
2018-05-21T20:32:22.721Z,20.87
2018-05-21T20:34:51.413Z,20.81
2018-05-21T20:37:19.759Z,20.76
2018-05-21T20:39:48.184Z,20.73
2018-05-21T20:42:16.546Z,20.71
2018-05-21T20:44:44.922Z,20.68
2018-05-21T20:47:13.267Z,20.69
2018-05-21T20:49:41.653Z,20.65
2018-05-21T20:52:10.028Z,20.61
2018-05-21T20:54:38.404Z,20.57
2018-05-21T20:57:07.732Z,20.54
2018-05-21T20:59:36.104Z,20.50
2018-05-21T21:02:04.460Z,20.47
2018-05-21T21:04:33.965Z,20.42
2018-05-21T21:07:03.090Z,20.40
2018-05-21T21:09:31.464Z,20.37
2018-05-21T21:11:59.824Z,20.36
2018-05-21T21:14:28.438Z,20.33
2018-05-21T21:16:56.793Z,20.28
2018-05-21T21:19:25.197Z,20.26
2018-05-21T21:21:53.559Z,20.19
2018-05-21T21:24:21.951Z,20.17
2018-05-21T21:26:51.251Z,20.08
2018-05-21T21:29:19.699Z,20.04
2018-05-21T21:31:48.112Z,19.96
2018-05-21T21:34:18.453Z,19.94
2018-05-21T21:36:47.326Z,19.90
2018-05-21T21:39:16.027Z,19.88
2018-05-21T21:41:44.432Z,19.82
2018-05-21T21:44:13.653Z,19.80
2018-05-21T21:46:42.840Z,19.78
2018-05-21T21:49:11.957Z,19.76
2018-05-21T21:51:40.314Z,19.74
2018-05-21T21:54:09.429Z,19.68
2018-05-21T21:56:37.856Z,19.64
2018-05-21T21:59:06.982Z,19.62
2018-05-21T22:01:36.382Z,19.59
2018-05-21T22:04:05.511Z,19.50
2018-05-21T22:06:35.182Z,19.49
2018-05-21T22:09:03.620Z,19.44
2018-05-21T22:11:32.585Z,19.38
2018-05-21T22:14:01.912Z,19.34
2018-05-21T22:16:31.153Z,19.29
2018-05-21T22:18:59.496Z,19.26
2018-05-21T22:21:28.555Z,19.18
2018-05-21T22:23:57.656Z,19.20
2018-05-21T22:26:26.035Z,19.12
2018-05-21T22:28:54.441Z,19.06
2018-05-21T22:31:22.815Z,18.97
2018-05-21T22:33:51.171Z,18.93
2018-05-21T22:36:19.516Z,18.94
2018-05-21T22:38:47.902Z,18.90
2018-05-21T22:41:18.827Z,18.93
2018-05-21T22:43:48.156Z,18.94
2018-05-21T22:46:17.311Z,18.88
2018-05-21T22:48:45.644Z,18.83
2018-05-21T22:51:14.770Z,18.81
2018-05-21T22:53:44.015Z,18.81
2018-05-21T22:56:13.147Z,18.76
2018-05-21T22:58:41.573Z,18.72
2018-05-21T23:01:10.503Z,18.68
2018-05-21T23:03:40.283Z,18.64
2018-05-21T23:06:08.638Z,18.61
2018-05-21T23:08:37.771Z,18.59
2018-05-21T23:11:07.632Z,18.56
2018-05-21T23:13:36.002Z,18.54
2018-05-21T23:16:04.725Z,18.54
2018-05-21T23:18:33.902Z,18.54
2018-05-21T23:21:02.249Z,18.50
2018-05-21T23:23:31.485Z,18.47
2018-05-21T23:25:59.861Z,18.41
2018-05-21T23:28:29.069Z,18.37
2018-05-21T23:30:57.437Z,18.34
2018-05-21T23:33:25.790Z,18.31
2018-05-21T23:35:54.493Z,18.25
2018-05-21T23:38:23.552Z,18.16
2018-05-21T23:40:52.653Z,18.14
2018-05-21T23:43:21.010Z,18.04
2018-05-21T23:45:51.000Z,18.04
2018-05-21T23:48:19.454Z,18.03
2018-05-21T23:50:47.825Z,18.02
2018-05-21T23:53:17.495Z,18.00
2018-05-21T23:55:47.048Z,18.03
2018-05-21T23:58:15.457Z,18.00
